Time;durP1;ratioP1;P1;durP2;ratioP2;P2;SDS_P1;SDS_P2;PMS_P1;PMS_P2;Temp;Humidity;BMP_temperature;BMP_pressure;BME280_temperature;BME280_humidity;BME280_pressure;Samples;Min_cycle;Max_cycle;Signal;HPM_P1;HPM_P2
2023/09/03 00:00:52;;;;;;;3.38;2.72;;;;;;;12.59;100.00;93724.91;2545339;23;20429;-82
2023/09/03 00:01:53;;;;;;;6.00;3.03;;;;;;;12.57;100.00;93724.59;2545536;23;20033;-83
2023/09/03 00:02:54;;;;;;;5.07;2.45;;;;;;;12.48;100.00;93726.31;2545689;23;20001;-81
2023/09/03 00:03:55;;;;;;;4.30;2.83;;;;;;;12.42;100.00;93726.03;2545306;23;20436;-82
2023/09/03 00:04:56;;;;;;;5.40;3.10;;;;;;;12.45;100.00;93721.78;2521221;23;20002;-82
2023/09/03 00:05:57;;;;;;;4.18;3.35;;;;;;;12.45;100.00;93729.81;2533028;23;20006;-83
2023/09/03 00:06:58;;;;;;;7.35;3.38;;;;;;;12.50;100.00;93713.25;2533056;23;20001;-83
2023/09/03 00:07:59;;;;;;;6.32;3.22;;;;;;;12.40;100.00;93720.31;2533576;23;20099;-83
2023/09/03 00:09:04;;;;;;;4.68;3.15;;;;;;;12.51;100.00;93720.91;2533285;23;20121;-83
2023/09/03 00:10:05;;;;;;;4.57;2.72;;;;;;;12.51;100.00;93722.78;2522858;23;20010;-81
2023/09/03 00:11:06;;;;;;;5.32;3.08;;;;;;;12.53;100.00;93725.84;2533388;23;20013;-83
2023/09/03 00:12:07;;;;;;;3.63;3.00;;;;;;;12.52;100.00;93719.72;2521097;23;20072;-84
2023/09/03 00:13:08;;;;;;;4.68;3.40;;;;;;;12.50;100.00;93722.03;2545581;23;20452;-83
2023/09/03 00:14:09;;;;;;;4.93;3.10;;;;;;;12.56;100.00;93728.44;2557342;23;20378;-82
2023/09/03 00:15:10;;;;;;;4.57;3.10;;;;;;;12.49;100.00;93725.91;2557618;23;20005;-83
2023/09/03 00:16:11;;;;;;;5.85;3.28;;;;;;;12.48;100.00;93720.94;2557638;23;20029;-83
2023/09/03 00:17:14;;;;;;;4.28;3.40;;;;;;;12.46;100.00;93721.34;2545115;23;20010;-83
2023/09/03 00:18:15;;;;;;;8.27;3.95;;;;;;;12.47;100.00;93730.94;2557541;23;20020;-81
2023/09/03 00:19:16;;;;;;;5.00;2.90;;;;;;;12.45;100.00;93727.13;2557656;23;20216;-83
2023/09/03 00:20:17;;;;;;;7.78;3.58;;;;;;;12.44;100.00;93728.31;2545322;23;20001;-85
2023/09/03 00:21:18;;;;;;;5.60;2.70;;;;;;;12.46;100.00;93725.97;2545247;23;20013;-83
2023/09/03 00:22:19;;;;;;;4.57;2.95;;;;;;;12.46;100.00;93729.38;2533267;23;20054;-82
2023/09/03 00:23:20;;;;;;;4.28;3.33;;;;;;;12.51;100.00;93723.56;2545227;23;20005;-82
2023/09/03 00:24:21;;;;;;;4.65;3.40;;;;;;;12.49;100.00;93723.22;2545320;23;20029;-82
2023/09/03 00:25:22;;;;;;;6.30;3.22;;;;;;;12.46;100.00;93723.28;2545089;23;20079;-84
2023/09/03 00:26:26;;;;;;;4.82;3.22;;;;;;;12.44;100.00;93717.59;2533299;23;20005;-83
2023/09/03 00:27:27;;;;;;;7.68;3.70;;;;;;;12.43;100.00;93711.47;2545517;23;20005;-86
2023/09/03 00:28:28;;;;;;;5.50;3.25;;;;;;;12.31;100.00;93714.75;2533479;23;20006;-82
2023/09/03 00:29:29;;;;;;;4.10;3.35;;;;;;;12.33;100.00;93709.72;2545309;23;20005;-82
2023/09/03 00:30:30;;;;;;;4.43;3.30;;;;;;;12.28;100.00;93713.66;2545333;23;20074;-83
2023/09/03 00:31:31;;;;;;;5.03;3.53;;;;;;;12.26;100.00;93718.66;2545122;23;20005;-83
2023/09/03 00:32:32;;;;;;;5.53;3.30;;;;;;;12.31;100.00;93714.75;2532936;23;20012;-83
2023/09/03 00:33:34;;;;;;;4.30;3.22;;;;;;;12.30;100.00;93715.94;2533188;23;19998;-83
2023/09/03 00:34:36;;;;;;;3.97;3.50;;;;;;;12.30;100.00;93714.00;2533418;23;20002;-85
2023/09/03 00:35:40;;;;;;;4.10;3.10;;;;;;;12.27;100.00;93717.50;2533113;23;20009;-82
2023/09/03 00:36:41;;;;;;;4.18;3.33;;;;;;;12.27;100.00;93716.75;2534578;23;20006;-83
2023/09/03 00:37:42;;;;;;;9.50;3.65;;;;;;;12.23;100.00;93719.47;2532880;23;20009;-84
2023/09/03 00:38:47;;;;;;;5.57;3.60;;;;;;;12.27;100.00;93728.22;2533116;23;20329;-83
2023/09/03 00:39:48;;;;;;;4.20;3.28;;;;;;;12.29;100.00;93722.44;2546147;23;20010;-83
2023/09/03 00:40:49;;;;;;;4.93;2.97;;;;;;;12.31;100.00;93718.19;2545130;23;20002;-82
2023/09/03 00:41:50;;;;;;;5.53;3.30;;;;;;;12.27;100.00;93728.22;2533238;23;20048;-82
2023/09/03 00:42:51;;;;;;;5.35;3.20;;;;;;;12.23;100.00;93722.16;2533162;23;20001;-83
2023/09/03 00:43:52;;;;;;;4.60;3.22;;;;;;;12.24;100.00;93722.91;2545340;23;20005;-83
2023/09/03 00:44:53;;;;;;;10.35;3.83;;;;;;;12.14;100.00;93726.56;2545229;23;20092;-84
2023/09/03 00:45:54;;;;;;;3.47;3.17;;;;;;;12.09;100.00;93715.13;2532907;23;20409;-84
2023/09/03 00:46:56;;;;;;;6.50;3.70;;;;;;;12.11;100.00;93730.81;2521129;23;20381;-82
2023/09/03 00:47:57;;;;;;;4.95;3.50;;;;;;;12.13;100.00;93717.00;2533272;23;20006;-82
2023/09/03 00:48:59;;;;;;;4.05;3.25;;;;;;;12.16;100.00;93724.22;2532906;23;20535;-81
2023/09/03 00:49:59;;;;;;;5.32;3.30;;;;;;;12.10;100.00;93724.69;2533586;23;20405;-82
2023/09/03 00:51:05;;;;;;;5.55;3.60;;;;;;;12.10;100.00;93723.94;2532826;23;20001;-83
2023/09/03 00:52:05;;;;;;;3.55;3.25;;;;;;;12.07;100.00;93720.16;2534906;23;20092;-83
2023/09/03 00:53:07;;;;;;;4.82;3.30;;;;;;;12.13;100.00;93719.69;2545019;23;20016;-82
2023/09/03 00:54:08;;;;;;;5.32;3.33;;;;;;;12.19;100.00;93726.06;2533085;23;20005;-81
2023/09/03 00:55:09;;;;;;;5.97;3.58;;;;;;;12.16;100.00;93724.22;2545290;23;20013;-83
2023/09/03 00:56:10;;;;;;;7.65;3.80;;;;;;;12.14;100.00;93730.00;2533070;23;20006;-83
2023/09/03 00:57:11;;;;;;;4.15;3.05;;;;;;;12.08;100.00;93737.00;2533448;23;20009;-82
2023/09/03 00:58:13;;;;;;;5.63;3.47;;;;;;;12.10;100.00;93734.66;2521157;23;20045;-83
2023/09/03 00:59:15;;;;;;;4.57;3.40;;;;;;;12.14;100.00;93739.97;2533323;23;20108;-82
2023/09/03 01:00:16;;;;;;;5.25;3.42;;;;;;;12.07;100.00;93735.47;2533190;23;20005;-83
2023/09/03 01:01:19;;;;;;;5.53;3.10;;;;;;;12.08;100.00;93740.44;2533081;23;20334;-81
2023/09/03 01:02:21;;;;;;;5.15;3.78;;;;;;;12.16;100.00;93732.25;2544937;23;20016;-82
2023/09/03 01:03:22;;;;;;;5.80;3.38;;;;;;;12.14;100.00;93730.00;2520904;23;20160;-83
2023/09/03 01:04:33;;;;;;;5.05;3.13;;;;;;;12.07;100.00;93736.25;2532997;23;20009;-82
2023/09/03 01:05:34;;;;;;;5.10;3.35;;;;;;;12.11;100.00;93736.16;2525322;23;20085;-85
2023/09/03 01:06:35;;;;;;;6.47;3.25;;;;;;;12.10;100.00;93731.97;2533106;23;20006;-83
2023/09/03 01:07:37;;;;;;;6.28;3.10;;;;;;;12.14;100.00;93737.28;2545101;23;20033;-85
2023/09/03 01:08:38;;;;;;;6.63;3.08;;;;;;;12.08;100.00;93737.75;2545154;23;20589;-83
2023/09/03 01:09:40;;;;;;;4.03;3.55;;;;;;;12.04;100.00;93734.38;2520945;23;20037;-82
2023/09/03 01:11:23;;;;;;;8.45;3.67;;;;;;;12.04;100.00;93739.72;2521285;23;19999;-81
2023/09/03 01:12:44;;;;;;;5.55;3.30;;;;;;;12.07;100.00;93735.47;2562695;23;20027;-82
2023/09/03 01:14:20;;;;;;;5.15;3.60;;;;;;;12.08;100.00;93735.06;2545041;23;20029;-83
2023/09/03 01:15:34;;;;;;;4.72;3.35;;;;;;;11.95;100.00;93736.84;2477774;23;20415;-83
2023/09/03 01:16:47;;;;;;;7.88;3.30;;;;;;;11.94;100.00;93734.53;2538072;23;20037;-82
2023/09/03 01:18:04;;;;;;;5.50;3.75;;;;;;;11.95;100.00;93738.75;2548162;23;20009;-84
2023/09/03 01:19:28;;;;;;;4.50;3.50;;;;;;;11.97;100.00;93741.78;2557305;23;20096;-83
2023/09/03 01:20:38;;;;;;;7.47;3.33;;;;;;;11.93;100.00;93741.06;2549908;23;20008;-84
2023/09/03 01:21:54;;;;;;;;;;;;;;;11.95;100.00;93744.88;2559829;23;20089;-83
2023/09/03 01:23:13;;;;;;;6.22;2.95;;;;;;;11.91;100.00;93738.81;2545044;23;19956;-83
2023/09/03 01:24:47;;;;;;;4.15;3.50;;;;;;;11.96;100.00;93745.63;2540192;23;20136;-82
2023/09/03 01:25:48;;;;;;;4.18;2.95;;;;;;;11.89;100.00;93748.41;2539424;23;20001;-82
2023/09/03 01:26:56;;;;;;;3.88;3.30;;;;;;;11.91;100.00;93746.09;2521238;23;20093;-81
2023/09/03 01:28:26;;;;;;;4.03;3.13;;;;;;;11.89;100.00;93751.09;2535256;23;20489;-82
2023/09/03 01:29:27;;;;;;;;;;;;;;;11.89;100.00;93757.19;2539532;23;20080;-84
2023/09/03 01:30:29;;;;;;;5.68;3.70;;;;;;;11.83;100.00;93754.22;2521081;23;19912;-83
2023/09/03 01:31:30;;;;;;;6.93;3.28;;;;;;;11.83;100.00;93753.47;2545622;23;20421;-82
2023/09/03 01:32:33;;;;;;;5.50;3.50;;;;;;;11.75;100.00;93752.81;2557197;23;20000;-82
2023/09/03 01:33:38;;;;;;;4.88;3.20;;;;;;;11.82;100.00;93752.72;2533192;23;20091;-84
2023/09/03 01:34:39;;;;;;;3.50;2.92;;;;;;;11.80;100.00;93756.94;2522410;23;20006;-82
2023/09/03 01:35:41;;;;;;;5.00;3.30;;;;;;;11.74;100.00;93761.25;2521026;23;20002;-83
2023/09/03 01:36:43;;;;;;;7.60;3.15;;;;;;;11.66;100.00;93759.84;2521118;23;20392;-82
2023/09/03 01:37:45;;;;;;;6.50;3.53;;;;;;;11.67;100.00;93764.78;2521260;23;20058;-83
2023/09/03 01:38:46;;;;;;;3.97;3.58;;;;;;;11.58;100.00;93751.16;2521222;23;20007;-82
2023/09/03 01:39:47;;;;;;;4.13;3.28;;;;;;;11.63;100.00;93757.97;2532821;23;20479;-83
2023/09/03 01:40:50;;;;;;;4.95;3.30;;;;;;;11.63;100.00;93757.97;2520976;23;20010;-81
2023/09/03 01:41:51;;;;;;;6.15;3.60;;;;;;;11.57;100.00;93761.13;2521731;23;20350;-80
2023/09/03 01:42:52;;;;;;;4.15;3.20;;;;;;;11.58;100.00;93759.19;2533026;23;20033;-82
2023/09/03 01:43:53;;;;;;;6.03;3.50;;;;;;;11.58;100.00;93751.91;2532898;23;20010;-83
2023/09/03 01:44:54;;;;;;;6.60;3.60;;;;;;;11.51;100.00;93746.69;2544939;23;20017;-85
2023/09/03 01:46:06;;;;;;;5.38;3.33;;;;;;;11.53;100.00;93747.03;2557297;23;20321;-84
2023/09/03 01:47:19;;;;;;;5.63;4.35;;;;;;;11.55;100.00;93750.06;2535278;23;20013;-82
2023/09/03 01:48:38;;;;;;;4.07;3.35;;;;;;;11.58;100.00;93754.59;2538188;23;20032;-82
2023/09/03 01:49:46;;;;;;;5.70;3.50;;;;;;;11.54;100.00;93753.13;2536200;23;20013;-83
2023/09/03 01:50:58;;;;;;;4.70;3.30;;;;;;;11.57;100.00;93755.75;2523645;23;20077;-82
2023/09/03 01:52:35;;;;;;;5.28;3.40;;;;;;;11.56;100.00;93756.94;2525371;23;20017;-82
2023/09/03 01:54:06;;;;;;;6.30;3.40;;;;;;;11.55;100.00;93757.34;2540316;23;20105;-82
2023/09/03 01:55:10;;;;;;;5.38;3.42;;;;;;;11.59;100.00;93758.06;2532788;23;20017;-82
2023/09/03 01:56:13;;;;;;;3.95;3.20;;;;;;;11.63;100.00;93761.41;2534317;23;20009;-85
2023/09/03 01:57:39;;;;;;;4.65;3.05;;;;;;;11.65;100.00;93763.69;2533498;23;20514;-82
2023/09/03 01:58:43;;;;;;;7.50;3.72;;;;;;;11.67;100.00;93772.81;2542954;23;20009;-84
2023/09/03 01:59:51;;;;;;;8.35;3.60;;;;;;;11.67;100.00;93772.06;2533548;23;20006;-82
2023/09/03 02:00:53;;;;;;;6.40;3.35;;;;;;;11.62;100.00;93775.22;2535641;23;20054;-82
2023/09/03 02:01:54;;;;;;;7.68;3.38;;;;;;;11.63;100.00;93769.44;2532780;23;20517;-83
2023/09/03 02:02:56;;;;;;;4.80;3.30;;;;;;;11.57;100.00;93769.16;2533096;23;20014;-83
2023/09/03 02:03:57;;;;;;;5.57;3.75;;;;;;;11.60;100.00;93770.28;2557464;23;20084;-82
2023/09/03 02:04:59;;;;;;;6.82;3.60;;;;;;;11.52;100.00;93777.63;2557262;23;20001;-82
2023/09/03 02:06:00;;;;;;;4.90;3.20;;;;;;;11.48;100.00;93776.19;2532807;23;20005;-82
2023/09/03 02:07:01;;;;;;;6.47;3.38;;;;;;;11.59;100.00;93774.13;2532911;23;20006;-83
2023/09/03 02:08:02;;;;;;;6.93;3.45;;;;;;;11.59;100.00;93771.44;2544789;23;20340;-84
2023/09/03 02:09:03;;;;;;;5.40;3.50;;;;;;;11.52;100.00;93774.97;2545052;23;20068;-83
2023/09/03 02:10:05;;;;;;;5.72;3.08;;;;;;;11.51;100.00;93776.13;2532844;23;20115;-81
2023/09/03 02:11:05;;;;;;;4.20;3.20;;;;;;;11.48;100.00;93782.28;2544839;23;20051;-84
2023/09/03 02:12:07;;;;;;;6.78;3.72;;;;;;;11.52;100.00;93784.91;2532767;23;20372;-82
2023/09/03 02:13:08;;;;;;;4.18;3.25;;;;;;;11.49;100.00;93778.44;2533098;23;20044;-83
2023/09/03 02:14:18;;;;;;;4.97;3.10;;;;;;;11.48;100.00;93781.53;2532605;23;20057;-83
2023/09/03 02:15:19;;;;;;;4.05;3.03;;;;;;;11.45;100.00;93790.38;2524386;23;20053;-84
2023/09/03 02:16:22;;;;;;;6.28;3.20;;;;;;;11.44;100.00;93786.94;2533306;23;20363;-84
2023/09/03 02:17:24;;;;;;;6.43;3.20;;;;;;;11.43;100.00;93782.00;2533402;23;20006;-81
2023/09/03 02:18:25;;;;;;;5.38;3.13;;;;;;;11.41;100.00;93789.66;2545067;23;20368;-83
2023/09/03 02:19:26;;;;;;;4.35;3.22;;;;;;;11.45;100.00;93779.66;2532954;23;20029;-82
2023/09/03 02:20:27;;;;;;;4.72;3.08;;;;;;;11.51;100.00;93784.16;2532805;23;20389;-82
2023/09/03 02:57:41;;;;;;;4.30;3.35;;;;;;;10.92;100.00;93789.91;2586807;22;20019;-83
2023/09/03 02:58:42;;;;;;;5.78;3.20;;;;;;;10.87;100.00;93793.03;2560531;23;20515;-83
2023/09/03 02:59:44;;;;;;;5.75;3.28;;;;;;;10.83;100.00;93787.72;2536058;23;20006;-82
2023/09/03 03:00:44;;;;;;;9.73;3.25;;;;;;;10.91;100.00;93791.06;2536469;23;20058;-85
2023/09/03 03:01:49;;;;;;;6.18;3.30;;;;;;;10.86;100.00;93796.09;2537231;23;20001;-83
2023/09/03 03:02:51;;;;;;;5.03;3.60;;;;;;;10.95;100.00;93797.13;2549061;23;20433;-84
2023/09/03 03:03:52;;;;;;;5.00;3.20;;;;;;;10.89;100.00;93796.06;2548620;23;20009;-83
2023/09/03 03:04:53;;;;;;;7.03;3.78;;;;;;;10.89;100.00;93796.06;2548278;23;20001;-84
2023/09/03 03:05:54;;;;;;;3.75;3.30;;;;;;;10.82;100.00;93791.56;2572930;23;20007;-83
2023/09/03 03:06:55;;;;;;;5.00;3.15;;;;;;;10.79;100.00;93789.66;2560497;23;20385;-83
2023/09/03 03:07:58;;;;;;;5.93;3.33;;;;;;;10.82;100.00;93798.81;2548177;23;20009;-82
2023/09/03 03:08:59;;;;;;;4.20;3.08;;;;;;;10.81;100.00;93790.03;2549807;23;20005;-85
2023/09/03 03:10:00;;;;;;;4.45;3.20;;;;;;;10.78;100.00;93800.78;2560578;23;20028;-82
2023/09/03 03:11:14;;;;;;;5.72;3.20;;;;;;;10.76;100.00;93800.44;2560527;23;20048;-85
2023/09/03 03:12:14;;;;;;;6.03;3.30;;;;;;;10.85;100.00;93798.03;2563080;23;20397;-84
2023/09/03 03:13:16;;;;;;;9.05;3.33;;;;;;;10.86;100.00;93796.88;2548259;23;20084;-84
2023/09/03 03:14:16;;;;;;;3.75;3.13;;;;;;;10.85;100.00;93790.00;2560659;23;20008;-83
2023/09/03 03:15:17;;;;;;;5.40;2.92;;;;;;;10.84;100.00;93791.13;2560547;23;20466;-82
2023/09/03 03:16:18;;;;;;;3.85;2.97;;;;;;;10.80;100.00;93793.13;2536067;23;20010;-83
2023/09/03 03:17:19;;;;;;;4.03;3.08;;;;;;;10.75;100.00;93793.53;2535767;23;20493;-83
2023/09/03 03:18:20;;;;;;;3.97;3.13;;;;;;;10.81;100.00;93786.63;2535704;23;20505;-83
2023/09/03 03:19:21;;;;;;;6.32;3.58;;;;;;;10.78;100.00;93798.09;2536045;23;20001;-83
2023/09/03 03:20:22;;;;;;;3.75;2.95;;;;;;;10.82;100.00;93798.81;2548101;23;20020;-84
2023/09/03 03:21:23;;;;;;;4.20;3.50;;;;;;;10.80;100.00;93798.47;2536131;23;20060;-83
2023/09/03 03:22:25;;;;;;;6.88;3.17;;;;;;;10.81;100.00;93800.00;2560705;23;20124;-82
2023/09/03 03:23:26;;;;;;;4.75;3.40;;;;;;;10.81;100.00;93800.75;2560195;23;20428;-83
2023/09/03 03:24:27;;;;;;;3.92;3.25;;;;;;;10.86;100.00;93799.53;2536216;23;20002;-84
2023/09/03 03:25:28;;;;;;;5.38;3.40;;;;;;;10.85;100.00;93806.06;2547871;23;20032;-83
2023/09/03 03:26:32;;;;;;;4.43;3.20;;;;;;;10.87;100.00;93800.28;2536407;23;20008;-83
2023/09/03 03:27:33;;;;;;;5.68;3.60;;;;;;;10.87;100.00;93805.66;2524867;23;20454;-83
2023/09/03 03:28:35;;;;;;;3.53;3.00;;;;;;;10.84;100.00;93804.50;2535969;23;20002;-82
2023/09/03 03:29:36;;;;;;;5.97;3.63;;;;;;;10.83;100.00;93811.78;2548367;23;20001;-83
2023/09/03 03:30:37;;;;;;;5.82;3.05;;;;;;;10.85;100.00;93806.06;2548193;23;20060;-82
2023/09/03 03:31:38;;;;;;;4.40;3.40;;;;;;;10.85;100.00;93806.06;2536103;23;20651;-83
2023/09/03 03:32:39;;;;;;;5.97;3.33;;;;;;;10.84;100.00;93807.19;2536214;23;20381;-83
2023/09/03 03:33:41;;;;;;;5.68;3.45;;;;;;;10.82;100.00;93809.53;2534846;23;20504;-83
2023/09/03 03:34:43;;;;;;;6.65;3.40;;;;;;;10.80;100.00;93809.16;2546106;23;20028;-82
2023/09/03 03:35:44;;;;;;;6.10;3.38;;;;;;;10.78;100.00;93816.81;2545127;23;20088;-83
2023/09/03 03:36:46;;;;;;;4.28;3.00;;;;;;;10.76;100.00;93819.91;2521301;23;20002;-83
2023/09/03 03:37:46;;;;;;;4.40;3.40;;;;;;;10.72;100.00;93813.06;2533378;23;20010;-84
2023/09/03 03:38:48;;;;;;;6.30;3.55;;;;;;;10.72;100.00;93821.09;2533464;23;20002;-84
2023/09/03 03:39:52;;;;;;;5.20;3.47;;;;;;;10.77;100.00;93826.00;2533495;23;20061;-83
2023/09/03 03:40:53;;;;;;;3.55;3.08;;;;;;;10.75;100.00;93825.63;2534346;23;20030;-84
2023/09/03 03:41:54;;;;;;;7.05;3.35;;;;;;;10.71;100.00;93823.03;2545779;23;20437;-83
2023/09/03 03:42:57;;;;;;;7.32;3.60;;;;;;;10.78;100.00;93816.81;2533765;23;20001;-83
2023/09/03 03:43:58;;;;;;;5.28;3.58;;;;;;;10.82;100.00;93820.22;2533877;23;20013;-82
2023/09/03 03:44:59;;;;;;;5.97;3.55;;;;;;;10.79;100.00;93821.00;2533274;23;20304;-83
2023/09/03 03:46:00;;;;;;;5.40;3.42;;;;;;;10.73;100.00;93815.34;2533204;23;20453;-84
2023/09/03 03:47:01;;;;;;;5.25;3.08;;;;;;;10.70;100.00;93810.03;2545685;23;20002;-82
2023/09/03 03:48:03;;;;;;;6.43;3.83;;;;;;;10.69;100.00;93811.19;2533365;23;20373;-82
2023/09/03 03:49:04;;;;;;;4.35;3.38;;;;;;;10.72;100.00;93821.09;2545653;23;20421;-83
2023/09/03 03:50:05;;;;;;;3.78;3.17;;;;;;;10.70;100.00;93816.13;2533497;23;20481;-82
2023/09/03 03:51:08;;;;;;;4.22;3.60;;;;;;;10.63;100.00;93808.22;2545635;23;20005;-83
2023/09/03 03:52:18;;;;;;;6.57;3.55;;;;;;;10.69;100.00;93816.53;2545707;23;20005;-83
2023/09/03 03:53:19;;;;;;;5.72;3.80;;;;;;;10.63;100.00;93816.22;2547183;23;20012;-83
2023/09/03 03:54:20;;;;;;;6.18;3.28;;;;;;;10.69;100.00;93816.53;2533211;23;20009;-84
2023/09/03 03:55:21;;;;;;;4.65;3.35;;;;;;;10.71;100.00;93812.31;2533375;23;20056;-83
2023/09/03 03:56:22;;;;;;;6.50;3.55;;;;;;;10.70;100.00;93815.38;2533071;23;20008;-83
2023/09/03 03:57:23;;;;;;;3.35;2.92;;;;;;;10.73;100.00;93811.91;2550216;23;20013;-83
2023/09/03 03:58:25;;;;;;;3.92;3.35;;;;;;;10.71;100.00;93811.53;2557770;23;20005;-83
2023/09/03 03:59:27;;;;;;;6.68;3.65;;;;;;;10.67;100.00;93808.16;2545583;23;20032;-84
2023/09/03 04:00:28;;;;;;;4.72;3.65;;;;;;;10.72;100.00;93816.50;2534035;23;20013;-82
2023/09/03 04:01:29;;;;;;;4.30;3.55;;;;;;;10.72;100.00;93818.44;2533196;23;20005;-84
2023/09/03 04:02:30;;;;;;;7.32;3.35;;;;;;;10.66;100.00;93804.72;2533129;23;20006;-84
2023/09/03 04:03:31;;;;;;;5.80;3.35;;;;;;;10.59;100.00;93818.19;2533164;23;20290;-82
2023/09/03 04:04:32;;;;;;;6.32;3.58;;;;;;;10.60;100.00;93814.34;2557596;23;20012;-83
2023/09/03 04:05:33;;;;;;;5.97;3.47;;;;;;;10.55;100.00;93820.13;2557690;23;20001;-82
2023/09/03 04:06:36;;;;;;;6.55;3.88;;;;;;;10.58;100.00;93814.00;2534208;23;20105;-82
2023/09/03 04:07:37;;;;;;;5.30;3.33;;;;;;;10.58;100.00;93811.31;2557977;23;20001;-83
2023/09/03 04:08:39;;;;;;;6.50;3.70;;;;;;;10.64;100.00;93811.63;2557495;23;20005;-83
2023/09/03 04:09:40;;;;;;;5.00;3.63;;;;;;;10.66;100.00;93820.00;2533689;23;20077;-83
2023/09/03 04:10:41;;;;;;;7.28;3.95;;;;;;;10.71;100.00;93816.88;2545339;23;20012;-82
2023/09/03 04:11:42;;;;;;;6.80;3.80;;;;;;;10.68;100.00;93809.69;2557515;23;20001;-83
2023/09/03 04:12:43;;;;;;;6.10;3.47;;;;;;;10.67;100.00;93813.50;2545259;23;20025;-83
2023/09/03 04:13:44;;;;;;;7.55;3.72;;;;;;;10.67;100.00;93824.19;2545435;23;20357;-82
2023/09/03 04:14:45;;;;;;;6.10;3.50;;;;;;;10.67;100.00;93826.84;2545400;23;20001;-83
2023/09/03 04:15:46;;;;;;;6.60;3.50;;;;;;;10.67;100.00;93822.31;2557494;23;20495;-82
2023/09/03 04:16:47;;;;;;;4.13;3.38;;;;;;;10.61;100.00;93829.22;2557460;23;20032;-83
2023/09/03 04:17:48;;;;;;;7.13;3.33;;;;;;;10.58;100.00;93822.00;2569896;23;20000;-84
2023/09/03 04:18:49;;;;;;;4.95;3.35;;;;;;;10.56;100.00;93822.38;2557612;23;20051;-82
2023/09/03 04:19:50;;;;;;;4.05;3.25;;;;;;;10.62;100.00;93827.31;2557672;23;20008;-84
2023/09/03 04:20:53;;;;;;;7.88;3.47;;;;;;;10.66;100.00;93825.34;2570075;23;20115;-83
2023/09/03 04:21:53;;;;;;;6.00;3.55;;;;;;;10.65;100.00;93829.94;2557423;23;20008;-83
2023/09/03 04:22:55;;;;;;;3.90;3.30;;;;;;;10.64;100.00;93831.09;2545097;23;20036;-82
2023/09/03 04:23:56;;;;;;;6.85;3.50;;;;;;;10.59;100.00;93829.63;2545518;23;20314;-84
2023/09/03 04:24:57;;;;;;;6.40;3.53;;;;;;;10.63;100.00;93829.59;2545415;23;20020;-83
2023/09/03 04:25:59;;;;;;;5.20;3.30;;;;;;;10.58;100.00;93830.78;2557031;23;20001;-82
2023/09/03 04:27:01;;;;;;;6.40;3.80;;;;;;;10.56;100.00;93835.00;2545892;23;20002;-82
2023/09/03 04:28:02;;;;;;;5.57;3.47;;;;;;;10.54;100.00;93830.06;2545156;23;20001;-83
2023/09/03 04:29:05;;;;;;;8.93;3.92;;;;;;;10.59;100.00;93828.88;2533252;23;20006;-82
2023/09/03 04:30:07;;;;;;;6.03;3.50;;;;;;;10.56;100.00;93829.66;2546445;23;20068;-83
2023/09/03 04:31:08;;;;;;;8.70;3.75;;;;;;;10.56;100.00;93832.34;2545432;23;20009;-84
2023/09/03 04:32:10;;;;;;;10.77;3.85;;;;;;;10.57;100.00;93831.91;2545567;23;20432;-83
2023/09/03 04:33:12;;;;;;;5.90;3.95;;;;;;;10.53;100.00;93839.22;2545635;23;20012;-82
2023/09/03 04:34:13;;;;;;;6.00;3.60;;;;;;;10.63;100.00;93828.84;2545425;23;20409;-83
2023/09/03 04:35:14;;;;;;;5.95;4.03;;;;;;;10.62;100.00;93821.94;2557845;23;20094;-83
2023/09/03 04:36:15;;;;;;;6.32;3.80;;;;;;;10.62;100.00;93821.94;2557394;23;20033;-82
2023/09/03 04:37:16;;;;;;;4.85;3.65;;;;;;;10.64;100.00;93816.97;2533306;23;20034;-83
2023/09/03 04:38:17;;;;;;;7.60;3.58;;;;;;;10.66;100.00;93820.75;2545261;23;20001;-84
2023/09/03 04:39:18;;;;;;;6.53;3.78;;;;;;;10.66;100.00;93820.00;2545565;23;20001;-82
2023/09/03 04:40:19;;;;;;;5.65;4.05;;;;;;;10.70;100.00;93818.06;2545432;23;20021;-82
2023/09/03 04:41:20;;;;;;;5.90;3.40;;;;;;;10.67;100.00;93810.81;2557666;23;20499;-85
2023/09/03 04:42:21;;;;;;;5.85;3.63;;;;;;;10.70;100.00;93821.47;2557450;23;20012;-83
2023/09/03 04:43:23;;;;;;;4.75;3.42;;;;;;;10.64;100.00;93822.34;2545194;23;20001;-83
2023/09/03 04:44:25;;;;;;;4.47;3.40;;;;;;;10.67;100.00;93821.50;2533698;23;20468;-82
2023/09/03 04:45:26;;;;;;;6.78;3.65;;;;;;;10.65;100.00;93827.28;2545299;23;20001;-83
2023/09/03 04:46:27;;;;;;;5.57;4.13;;;;;;;10.64;100.00;93835.69;2544962;23;20025;-81
2023/09/03 04:47:29;;;;;;;5.55;3.63;;;;;;;10.61;100.00;93837.25;2533217;23;20060;-84
2023/09/03 04:48:31;;;;;;;4.90;3.72;;;;;;;10.57;100.00;93828.50;2545568;23;20013;-84
2023/09/03 04:49:33;;;;;;;9.30;3.58;;;;;;;10.60;100.00;93835.72;2569676;23;20075;-82
2023/09/03 04:50:34;;;;;;;9.48;4.05;;;;;;;10.64;100.00;93841.03;2558033;23;20011;-82
2023/09/03 04:51:35;;;;;;;4.75;2.97;;;;;;;10.65;100.00;93842.56;2545142;23;20001;-83
2023/09/03 04:52:42;;;;;;;7.03;3.63;;;;;;;10.62;100.00;93840.66;2545299;23;20088;-84
2023/09/03 04:53:43;;;;;;;4.53;3.20;;;;;;;10.66;100.00;93847.50;2547896;23;20005;-82
2023/09/03 04:54:44;;;;;;;5.88;3.58;;;;;;;10.65;100.00;93847.91;2557407;23;20008;-82
2023/09/03 04:55:45;;;;;;;7.47;3.70;;;;;;;10.71;100.00;93847.09;2557396;23;20012;-83
2023/09/03 04:56:47;;;;;;;5.70;3.60;;;;;;;10.66;100.00;93844.81;2543926;23;20005;-83
2023/09/03 04:57:48;;;;;;;5.93;3.38;;;;;;;10.65;100.00;93847.91;2520984;23;20006;-82
2023/09/03 04:58:48;;;;;;;3.95;3.55;;;;;;;10.74;100.00;93851.63;2521067;23;20057;-84
2023/09/03 04:59:49;;;;;;;4.43;3.50;;;;;;;10.72;100.00;93845.16;2533044;23;20707;-83
2023/09/03 05:00:50;;;;;;;6.32;3.85;;;;;;;10.73;100.00;93841.31;2545021;23;20361;-83
2023/09/03 05:01:55;;;;;;;8.25;4.47;;;;;;;10.75;100.00;93844.34;2533562;23;20009;-84
2023/09/03 05:02:57;;;;;;;7.65;4.18;;;;;;;10.74;100.00;93846.28;2532696;23;20006;-83
2023/09/03 05:03:58;;;;;;;8.00;3.67;;;;;;;10.77;100.00;93848.16;2521147;23;20006;-82
2023/09/03 05:04:59;;;;;;;5.45;3.70;;;;;;;10.79;100.00;93845.06;2533012;23;20406;-82
2023/09/03 05:06:00;;;;;;;6.72;4.25;;;;;;;10.81;100.00;93848.88;2520836;23;20010;-83
2023/09/03 05:07:02;;;;;;;7.65;3.33;;;;;;;10.79;100.00;93850.41;2533198;23;20005;-84
2023/09/03 05:08:04;;;;;;;8.77;3.85;;;;;;;10.83;100.00;93851.16;2533194;23;20441;-82
2023/09/03 05:09:05;;;;;;;5.00;4.22;;;;;;;10.84;100.00;93852.66;2533295;23;20006;-83
2023/09/03 05:10:07;;;;;;;7.22;3.80;;;;;;;10.86;100.00;93860.28;2545169;23;20020;-83
2023/09/03 05:11:12;;;;;;;8.35;4.45;;;;;;;10.89;100.00;93857.59;2532957;23;20089;-83
2023/09/03 05:12:13;;;;;;;10.88;4.15;;;;;;;10.88;100.00;93863.31;2545851;23;20345;-83
2023/09/03 05:13:14;;;;;;;7.57;3.92;;;;;;;10.84;100.00;93858.00;2544844;23;20032;-82
2023/09/03 05:14:15;;;;;;;9.57;3.95;;;;;;;10.81;100.00;93861.50;2532923;23;20002;-84
2023/09/03 05:15:16;;;;;;;6.50;4.18;;;;;;;10.91;100.00;93857.94;2545193;23;20005;-82
2023/09/03 05:16:17;;;;;;;5.03;4.10;;;;;;;11.00;100.00;93863.56;2557247;23;20413;-83
2023/09/03 05:17:20;;;;;;;6.10;3.92;;;;;;;11.01;100.00;93859.72;2545247;23;20001;-83
2023/09/03 05:18:21;;;;;;;9.85;3.70;;;;;;;10.98;100.00;93860.53;2545218;23;20019;-83
2023/09/03 05:19:22;;;;;;;5.95;3.53;;;;;;;10.97;100.00;93860.91;2532737;23;20009;-83
2023/09/03 05:20:24;;;;;;;7.90;4.20;;;;;;;11.00;100.00;93865.47;2521117;23;20002;-82
2023/09/03 05:21:25;;;;;;;8.90;4.05;;;;;;;11.06;100.00;93859.31;2532921;23;20021;-85
2023/09/03 05:22:26;;;;;;;7.32;4.18;;;;;;;11.09;100.00;93861.16;2532743;23;20086;-83
2023/09/03 05:23:26;;;;;;;10.73;4.40;;;;;;;11.08;100.00;93867.69;2545141;23;20129;-82
2023/09/03 05:24:28;;;;;;;9.68;4.40;;;;;;;11.11;100.00;93868.81;2557227;23;20005;-84
2023/09/03 05:25:29;;;;;;;6.38;3.58;;;;;;;11.17;100.00;93874.47;2544921;23;20005;-84
2023/09/03 05:26:31;;;;;;;9.15;4.55;;;;;;;11.21;100.00;93869.84;2544960;23;20001;-83
2023/09/03 05:27:32;;;;;;;6.72;4.07;;;;;;;11.25;100.00;93865.19;2533173;23;20088;-83
2023/09/03 05:28:33;;;;;;;7.43;4.25;;;;;;;11.29;100.00;93871.28;2520731;23;20007;-83
2023/09/03 05:29:34;;;;;;;6.00;4.13;;;;;;;11.29;100.00;93864.00;2532845;23;20006;-83
2023/09/03 05:30:35;;;;;;;7.45;4.40;;;;;;;11.36;100.00;93865.81;2545087;23;20079;-84